• Join FlightAware (Why Join?)
  • Login
  • US Flag 
Gobble Gobble! 
05:07PM EST


 

Airport Tracker/Info


-or-


 

Live Flight TrackerFlight Track Log ✈ UCA597 ✈ 11-Mar-2014 ✈ KIAD - KBGM

Flight Track Log - Related Links

Times and Time Zones

All times are in EDT time to prevent confusion due to time zone crossing. See the UCA597 flight status page for this flight to view local times or setup timezone preferences in your user account.

Time Position Orientation Groundspeed Altitude Reporting Facility
EDT Latitude Longitude Course Direction KTS MPH feet Rate Location/Type
07:56PM 38.9500 -77.5167 North 155 178 1,700  Level Potomac TRACON
07:57PM 38.9833 -77.5833 303° West 180 207 2,900 1,200 Climbing Potomac TRACON
07:58PM 39.0000 -77.6333 293° West 179 206 4,200 1,200 Climbing Potomac TRACON
07:59PM 39.0500 -77.6667 333° Northwest 197 227 5,400 1,200 Climbing Potomac TRACON
08:00PM 39.1000 -77.6667 360° North 202 232 6,600 1,080 Climbing Potomac TRACON
08:01PM 39.1500 -77.6167 38° Northeast 209 241 7,600 1,080 Climbing Potomac TRACON
08:02PM 38.9729 -77.4563 North  Level FlightAware Approximate
08:02PM 39.2000 -77.5833 27° Northeast 212 244 8,800  Level Potomac TRACON
08:04PM 39.3039 -77.5575 11° North 203 234 10,700 900 Climbing Washington Center
08:05PM 39.3644 -77.5378 14° North 203 234 11,700 900 Climbing Washington Center
08:06PM 39.4253 -77.5178 14° North 208 239 12,500 960 Climbing Washington Center
08:08PM 39.5386 -77.4853 12° North 222 255 14,400 1,020 Climbing New York Center
08:09PM 39.5961 -77.4667 14° North 227 261 15,300 780 Climbing New York Center
08:10PM 39.6531 -77.4531 10° North 227 261 16,000 780 Climbing New York Center
08:11PM 39.7242 -77.4517 North 227 261 16,900 840 Climbing New York Center
08:12PM 39.7825 -77.4519 360° North 227 261 17,700 1,020 Climbing New York Center
08:13PM 39.8511 -77.4531 359° North 227 261 19,000 600 Climbing New York Center
08:14PM 39.9119 -77.4506 North 232 267 19,000  Level New York Center
08:15PM 39.9828 -77.4494 North 240 276 19,000  Level New York Center
08:16PM 40.0558 -77.4483 North 258 297 19,000  Level New York Center
08:17PM 40.1372 -77.4478 360° North 258 297 19,000  Level New York Center
08:18PM 40.2039 -77.4461 North 258 297 19,000  Level New York Center
08:19PM 40.2833 -77.4456 360° North 258 297 19,000  Level New York Center
08:20PM 40.3561 -77.4472 359° North 258 297 19,000  Level New York Center
08:21PM 40.4314 -77.4436 North 258 297 19,000  Level New York Center
08:22PM 40.5042 -77.4450 359° North 258 297 19,000  Level New York Center
08:23PM 40.5797 -77.4006 24° Northeast 273 314 19,000 -660 Level New York Center
08:24PM 40.6519 -77.3392 33° Northeast 299 344 17,700 -1,020 Descending New York Center
08:25PM 40.7306 -77.2753 32° Northeast 317 365 17,000 -360 Descending New York Center
08:26PM 40.7983 -77.2161 33° Northeast 312 359 17,000  Level New York Center
08:27PM 40.8661 -77.1592 32° Northeast 307 353 17,100  Climbing New York Center
08:28PM 40.9358 -77.0997 33° Northeast 295 339 17,100  Level New York Center
08:29PM 41.0036 -77.0403 33° Northeast 295 339 17,100 -60 Level New York Center
08:30PM 41.0736 -76.9806 33° Northeast 295 339 17,000 -60 Descending New York Center
08:31PM 41.1411 -76.9233 33° Northeast 295 339 17,000  Level New York Center
08:32PM 41.2089 -76.8606 35° Northeast 295 339 17,100  Climbing New York Center
08:33PM 41.2764 -76.8031 33° Northeast 295 339 17,100 -60 Level New York Center
08:34PM 41.3442 -76.7428 34° Northeast 295 339 17,000 -60 Descending New York Center
08:35PM 41.4119 -76.6797 35° Northeast 295 339 17,000  Level New York Center
08:36PM 41.4728 -76.6297 32° Northeast 295 339 17,000 -60 Level New York Center
08:37PM 41.5422 -76.5692 33° Northeast 295 339 16,900 -780 Descending New York Center
08:38PM 41.6225 -76.5039 31° Northeast 304 350 15,500 -1,260 Descending New York Center
08:39PM 41.7000 -76.4494 28° Northeast 309 356 14,400 -1,080 Descending New York Center
08:40PM 41.7606 -76.4044 29° Northeast 309 356 13,400 -1,200 Descending New York Center
08:41PM 41.8425 -76.3475 27° Northeast 297 342 12,100 -1,260 Descending New York Center
08:42PM 41.9097 -76.2864 34° Northeast 297 342 10,900 -1,500 Descending New York Center
08:43PM 41.9875 -76.2258 30° Northeast 291 335 9,200 -1,500 Descending New York Center
08:44PM 42.0522 -76.1781 29° Northeast 285 328 8,000 -1,380 Descending New York Center
08:45PM 42.1208 -76.1361 24° Northeast 280 322 6,500 -1,740 Descending New York Center
08:46PM 42.1492 -76.0600 63° Northeast 234 269 4,600 -1,380 Descending New York Center
08:47PM 42.1422 -75.9786 97° East 210 242 3,800 -780 Descending New York Center
08:48PM 42.1567 -75.9375 65° Northeast 180 207 3,100 -840 Descending New York Center
08:49PM 42.1858 -75.9372 360° North 92 106 2,200 2,940 Descending New York Center
08:50PM 42.2072 -75.9192 32° Northeast 92 106 9,000 3,360 Climbing New York Center
08:51PM 42.2289 -75.8986 35° Northeast 92 106 9,000  Level New York Center
08:52PM 42.2506 -75.8806 32° Northeast 92 106 9,000  Level New York Center
08:54PM 42.2000 -75.9667 North  Level FlightAware Approximate
09:01PM 42.2084 -75.9796 North  Level Estimated
09:02PM 42.2084 -75.9796 North  Level Estimated
09:03PM 42.2084 -75.9796 North  Level Estimated
09:04PM 42.2084 -75.9796 North  Level Estimated
09:05PM 42.2084 -75.9796 North  Level Estimated
09:06PM 42.2084 -75.9796 North  Level Estimated
09:07PM 42.2084 -75.9796 North  Level Estimated
09:08PM 42.2084 -75.9796 North  Level Estimated
09:09PM 42.2084 -75.9796 North  Level Estimated
09:10PM 42.2084 -75.9796 North  Level Estimated